^^
Meteo Knjazevac Station Historical Data
Daily Summary for July 3, 2021 Units:  Both    English   Metric
Daily Weekly Monthly Yearly Custom
  High: Low: Average:
Temperature: 79 °F /  26.1 °C 46 °F /  7.8 °C 62.4 °F /  16.9 °C
Dew Point: 56.9 °F /  13.8 °C 43.6 °F /  6.4 °C 50.7 °F /  10.4 °C
Humidity: 95% 43% 69%
Wind Speed: 6mph /  9.7km/h - 1.7mph /  2.7km/h
Wind Gust: 10mph /  16.1km/h - -
Wind- - SW
Pressure: 30.27 in /  1024.9 hPa 30.10 in /  1019.2 hPa -
Precipitation: 0.00 in /  0 mm    
Historical Graphs
 
 
Tabular Data for July 3, 2021
Time Temperature Dew Point Pressure Wind Wind Speed Wind Gust Humidity Rainfall Rate (Hourly) solar Conditions
00:00 54.3 °F /  12.4 °C 48.3 °F /  9.1 °C 30.27in /  1024.9hPa WSW 1mph /  1.6km/h 2mph /  3.2km/h 80% 0.00in /  0mm 0 W/m2
00:10 54.1 °F /  12.3 °C 48.4 °F /  9.1 °C 30.26in /  1024.6hPa NW 1mph /  1.6km/h 3mph /  4.8km/h 81% 0.00in /  0mm 0 W/m2
00:20 54 °F /  12.2 °C 48.3 °F /  9.1 °C 30.26in /  1024.6hPa WNW 1mph /  1.6km/h 2mph /  3.2km/h 81% 0.00in /  0mm 0 W/m2
00:30 53.7 °F /  12.1 °C 48 °F /  8.9 °C 30.26in /  1024.6hPa Calm   1mph /  1.6km/h 81% 0.00in /  0mm 0 W/m2
00:40 53.4 °F /  11.9 °C 47.7 °F /  8.7 °C 30.26in /  1024.6hPa Calm   2mph /  3.2km/h 81% 0.00in /  0mm 0 W/m2
00:50 53.1 °F /  11.7 °C 48.1 °F /  8.9 °C 30.26in /  1024.6hPa NW 1mph /  1.6km/h 4mph /  6.4km/h 83% 0.00in /  0mm 0 W/m2
01:00 52.7 °F /  11.5 °C 47.7 °F /  8.7 °C 30.26in /  1024.6hPa West 2mph /  3.2km/h 3mph /  4.8km/h 83% 0.00in /  0mm 0 W/m2
01:10 52.3 °F /  11.3 °C 47.6 °F /  8.7 °C 30.26in /  1024.6hPa NW 1mph /  1.6km/h 3mph /  4.8km/h 84% 0.00in /  0mm 0 W/m2
01:20 52 °F /  11.1 °C 47.3 °F /  8.5 °C 30.25in /  1024.3hPa NW 1mph /  1.6km/h 2mph /  3.2km/h 84% 0.00in /  0mm 0 W/m2
01:30 51.6 °F /  10.9 °C 47.3 °F /  8.5 °C 30.25in /  1024.3hPa WSW 2mph /  3.2km/h 3mph /  4.8km/h 85% 0.00in /  0mm 0 W/m2
01:40 51.3 °F /  10.7 °C 47 °F /  8.3 °C 30.25in /  1024.3hPa Calm   3mph /  4.8km/h 85% 0.00in /  0mm 0 W/m2
01:50 50.9 °F /  10.5 °C 46.6 °F /  8.1 °C 30.25in /  1024.3hPa WSW 1mph /  1.6km/h 3mph /  4.8km/h 85% 0.00in /  0mm 0 W/m2
02:00 50.7 °F /  10.4 °C 46.7 °F /  8.2 °C 30.25in /  1024.3hPa Calm   2mph /  3.2km/h 86% 0.00in /  0mm 0 W/m2
02:10 50.7 °F /  10.4 °C 46.7 °F /  8.2 °C 30.25in /  1024.3hPa West 1mph /  1.6km/h 2mph /  3.2km/h 86% 0.00in /  0mm 0 W/m2
02:20 50.5 °F /  10.3 °C 46.5 °F /  8.1 °C 30.25in /  1024.3hPa Calm   1mph /  1.6km/h 86% 0.00in /  0mm 0 W/m2
02:30 50.5 °F /  10.3 °C 46.5 °F /  8.1 °C 30.25in /  1024.3hPa Calm   2mph /  3.2km/h 86% 0.00in /  0mm 0 W/m2
02:40 50.4 °F /  10.2 °C 46.9 °F /  8.3 °C 30.25in /  1024.3hPa WNW 1mph /  1.6km/h 3mph /  4.8km/h 88% 0.00in /  0mm 0 W/m2
02:50 50.1 °F /  10.1 °C 46.6 °F /  8.1 °C 30.25in /  1024.3hPa Calm   2mph /  3.2km/h 88% 0.00in /  0mm 0 W/m2
03:00 49.8 °F /  9.9 °C 46.4 °F /  8 °C 30.24in /  1023.9hPa Calm   2mph /  3.2km/h 88% 0.00in /  0mm 0 W/m2
03:10 49.5 °F /  9.7 °C 46.1 °F /  7.8 °C 30.24in /  1023.9hPa West 1mph /  1.6km/h 3mph /  4.8km/h 88% 0.00in /  0mm 0 W/m2
03:20 49 °F /  9.4 °C 45.6 °F /  7.6 °C 30.24in /  1023.9hPa WSW 2mph /  3.2km/h 4mph /  6.4km/h 88% 0.00in /  0mm 0 W/m2
03:30 48.7 °F /  9.3 °C 45.6 °F /  7.6 °C 30.24in /  1023.9hPa Calm   3mph /  4.8km/h 89% 0.00in /  0mm 0 W/m2
03:40 48.6 °F /  9.2 °C 45.5 °F /  7.5 °C 30.24in /  1023.9hPa WNW 2mph /  3.2km/h 3mph /  4.8km/h 89% 0.00in /  0mm 0 W/m2
03:50 48.6 °F /  9.2 °C 45.5 °F /  7.5 °C 30.24in /  1023.9hPa NW 1mph /  1.6km/h 3mph /  4.8km/h 89% 0.00in /  0mm 0 W/m2
04:00 48.3 °F /  9.1 °C 45.2 °F /  7.3 °C 30.24in /  1023.9hPa WSW 1mph /  1.6km/h 2mph /  3.2km/h 89% 0.00in /  0mm 0 W/m2
04:10 48 °F /  8.9 °C 45.2 °F /  7.3 °C 30.24in /  1023.9hPa Calm   2mph /  3.2km/h 90% 0.00in /  0mm 0 W/m2
04:20 47.8 °F /  8.8 °C 45 °F /  7.2 °C 30.23in /  1023.6hPa WSW 1mph /  1.6km/h 2mph /  3.2km/h 90% 0.00in /  0mm 0 W/m2
04:30 47.8 °F /  8.8 °C 45 °F /  7.2 °C 30.23in /  1023.6hPa West 2mph /  3.2km/h 3mph /  4.8km/h 90% 0.00in /  0mm 0 W/m2
04:40 47.7 °F /  8.7 °C 45.2 °F /  7.3 °C 30.24in /  1023.9hPa West 2mph /  3.2km/h 5mph /  8km/h 91% 0.00in /  0mm 0 W/m2
04:50 47.5 °F /  8.6 °C 45 °F /  7.2 °C 30.24in /  1023.9hPa West 2mph /  3.2km/h 5mph /  8km/h 91% 0.00in /  0mm 0 W/m2
05:00 47.1 °F /  8.4 °C 44.6 °F /  7 °C 30.24in /  1023.9hPa West 1mph /  1.6km/h 3mph /  4.8km/h 91% 0.00in /  0mm 0 W/m2
05:10 46.9 °F /  8.3 °C 44.4 °F /  6.9 °C 30.24in /  1023.9hPa WNW 1mph /  1.6km/h 2mph /  3.2km/h 91% 0.00in /  0mm 0 W/m2
05:20 46.9 °F /  8.3 °C 44.4 °F /  6.9 °C 30.24in /  1023.9hPa NNW 1mph /  1.6km/h 2mph /  3.2km/h 91% 0.00in /  0mm 0 W/m2
05:30 46.8 °F /  8.2 °C 44 °F /  6.7 °C 30.24in /  1023.9hPa Calm   2mph /  3.2km/h 90% 0.00in /  0mm 0 W/m2
05:40 46.6 °F /  8.1 °C 43.8 °F /  6.6 °C 30.24in /  1023.9hPa Calm   2mph /  3.2km/h 90% 0.00in /  0mm 0 W/m2
05:50 46.4 °F /  8 °C 43.6 °F /  6.4 °C 30.24in /  1023.9hPa West 1mph /  1.6km/h 2mph /  3.2km/h 90% 0.00in /  0mm 0 W/m2
06:00 46.2 °F /  7.9 °C 43.7 °F /  6.5 °C 30.23in /  1023.6hPa NW 1mph /  1.6km/h 2mph /  3.2km/h 91% 0.00in /  0mm 6 W/m2
06:10 46.2 °F /  7.9 °C 43.7 °F /  6.5 °C 30.23in /  1023.6hPa Calm   2mph /  3.2km/h 91% 0.00in /  0mm 13 W/m2
06:20 46.2 °F /  7.9 °C 43.7 °F /  6.5 °C 30.24in /  1023.9hPa Calm   2mph /  3.2km/h 91% 0.00in /  0mm 23 W/m2
06:30 46 °F /  7.8 °C 43.6 °F /  6.4 °C 30.24in /  1023.9hPa Calm   2mph /  3.2km/h 91% 0.00in /  0mm 33 W/m2
06:40 46 °F /  7.8 °C 43.6 °F /  6.4 °C 30.24in /  1023.9hPa Calm   2mph /  3.2km/h 91% 0.00in /  0mm 43 W/m2
06:50 46 °F /  7.8 °C 43.6 °F /  6.4 °C 30.24in /  1023.9hPa Calm   2mph /  3.2km/h 91% 0.00in /  0mm 81 W/m2
07:00 46 °F /  7.8 °C 44.1 °F /  6.7 °C 30.24in /  1023.9hPa West 1mph /  1.6km/h 2mph /  3.2km/h 93% 0.00in /  0mm 107 W/m2
07:10 46.2 °F /  7.9 °C 44.6 °F /  7 °C 30.24in /  1023.9hPa WNW 1mph /  1.6km/h 3mph /  4.8km/h 94% 0.00in /  0mm 133 W/m2
07:20 46.7 °F /  8.2 °C 45.1 °F /  7.3 °C 30.24in /  1023.9hPa WNW 1mph /  1.6km/h 3mph /  4.8km/h 94% 0.00in /  0mm 164 W/m2
07:30 47.3 °F /  8.5 °C 45.9 °F /  7.7 °C 30.24in /  1023.9hPa West 2mph /  3.2km/h 3mph /  4.8km/h 95% 0.00in /  0mm 194 W/m2
07:40 48 °F /  8.9 °C 46.7 °F /  8.2 °C 30.24in /  1023.9hPa NW 2mph /  3.2km/h 3mph /  4.8km/h 95% 0.00in /  0mm 224 W/m2
07:50 48.9 °F /  9.4 °C 47.5 °F /  8.6 °C 30.24in /  1023.9hPa Calm   4mph /  6.4km/h 95% 0.00in /  0mm 260 W/m2
08:00 49.6 °F /  9.8 °C 48.3 °F /  9.1 °C 30.24in /  1023.9hPa West 1mph /  1.6km/h 4mph /  6.4km/h 95% 0.00in /  0mm 293 W/m2
08:10 50.7 °F /  10.4 °C 49 °F /  9.4 °C 30.24in /  1023.9hPa NW 1mph /  1.6km/h 3mph /  4.8km/h 94% 0.00in /  0mm 329 W/m2
08:20 51.8 °F /  11 °C 49.8 °F /  9.9 °C 30.24in /  1023.9hPa West 1mph /  1.6km/h 2mph /  3.2km/h 93% 0.00in /  0mm 360 W/m2
08:30 53 °F /  11.7 °C 50.5 °F /  10.3 °C 30.23in /  1023.6hPa SSW 1mph /  1.6km/h 2mph /  3.2km/h 91% 0.00in /  0mm 400 W/m2
08:40 55.4 °F /  13 °C 52.2 °F /  11.2 °C 30.24in /  1023.9hPa SSE 1mph /  1.6km/h 5mph /  8km/h 89% 0.00in /  0mm 436 W/m2
08:50 57.7 °F /  14.3 °C 53.2 °F /  11.8 °C 30.24in /  1023.9hPa NE 1mph /  1.6km/h 6mph /  9.7km/h 85% 0.00in /  0mm 469 W/m2
09:00 59.8 °F /  15.4 °C 54 °F /  12.2 °C 30.24in /  1023.9hPa NE 2mph /  3.2km/h 3mph /  4.8km/h 81% 0.00in /  0mm 500 W/m2
09:10 61.9 °F /  16.6 °C 55.3 °F /  12.9 °C 30.23in /  1023.6hPa NNE 3mph /  4.8km/h 6mph /  9.7km/h 79% 0.00in /  0mm 528 W/m2
09:20 63.7 °F /  17.6 °C 55.2 °F /  12.9 °C 30.23in /  1023.6hPa NE 2mph /  3.2km/h 6mph /  9.7km/h 74% 0.00in /  0mm 554 W/m2
09:30 65.1 °F /  18.4 °C 56.2 °F /  13.4 °C 30.23in /  1023.6hPa ENE 1mph /  1.6km/h 6mph /  9.7km/h 73% 0.00in /  0mm 580 W/m2
09:40 66.4 °F /  19.1 °C 56.3 °F /  13.5 °C 30.23in /  1023.6hPa Calm   6mph /  9.7km/h 70% 0.00in /  0mm 605 W/m2
09:50 67.6 °F /  19.8 °C 56.7 °F /  13.7 °C 30.23in /  1023.6hPa NE 2mph /  3.2km/h 5mph /  8km/h 68% 0.00in /  0mm 629 W/m2
10:00 68.5 °F /  20.3 °C 56.3 °F /  13.5 °C 30.22in /  1023.2hPa ENE 2mph /  3.2km/h 7mph /  11.3km/h 65% 0.00in /  0mm 652 W/m2
10:10 69.4 °F /  20.8 °C 56.3 °F /  13.5 °C 30.22in /  1023.2hPa East 6mph /  9.7km/h 6mph /  9.7km/h 63% 0.00in /  0mm 673 W/m2
10:20 70.2 °F /  21.2 °C 55.6 °F /  13.1 °C 30.22in /  1023.2hPa ESE 3mph /  4.8km/h 8mph /  12.9km/h 60% 0.00in /  0mm 693 W/m2
10:30 70.8 °F /  21.6 °C 56.3 °F /  13.5 °C 30.22in /  1023.2hPa East 2mph /  3.2km/h 7mph /  11.3km/h 60% 0.00in /  0mm 712 W/m2
10:40 71.9 °F /  22.2 °C 56.3 °F /  13.5 °C 30.22in /  1023.2hPa ENE 2mph /  3.2km/h 7mph /  11.3km/h 58% 0.00in /  0mm 730 W/m2
10:50 72.6 °F /  22.6 °C 56.5 °F /  13.6 °C 30.21in /  1022.9hPa ESE 2mph /  3.2km/h 7mph /  11.3km/h 57% 0.00in /  0mm 243 W/m2
11:00 73.4 °F /  23 °C 56.2 °F /  13.4 °C 30.21in /  1022.9hPa West 3mph /  4.8km/h 6mph /  9.7km/h 55% 0.00in /  0mm 761 W/m2
11:10 73.6 °F /  23.1 °C 56.4 °F /  13.6 °C 30.21in /  1022.9hPa West 5mph /  8km/h 9mph /  14.5km/h 55% 0.00in /  0mm 452 W/m2
11:20 73.6 °F /  23.1 °C 56.4 °F /  13.6 °C 30.21in /  1022.9hPa WNW 3mph /  4.8km/h 9mph /  14.5km/h 55% 0.00in /  0mm 312 W/m2
11:30 73.3 °F /  22.9 °C 55.6 °F /  13.1 °C 30.21in /  1022.9hPa NW 3mph /  4.8km/h 7mph /  11.3km/h 54% 0.00in /  0mm 796 W/m2
11:40 73.6 °F /  23.1 °C 55.9 °F /  13.3 °C 30.20in /  1022.6hPa NNW 3mph /  4.8km/h 6mph /  9.7km/h 54% 0.00in /  0mm 805 W/m2
11:50 74.3 °F /  23.5 °C 56.5 °F /  13.6 °C 30.20in /  1022.6hPa WNW 2mph /  3.2km/h 9mph /  14.5km/h 54% 0.00in /  0mm 812 W/m2
12:00 74.8 °F /  23.8 °C 56.6 °F /  13.7 °C 30.19in /  1022.2hPa WNW 2mph /  3.2km/h 6mph /  9.7km/h 53% 0.00in /  0mm 409 W/m2
12:10 75.2 °F /  24 °C 56.9 °F /  13.8 °C 30.19in /  1022.2hPa South 3mph /  4.8km/h 9mph /  14.5km/h 53% 0.00in /  0mm 300 W/m2
12:20 75.5 °F /  24.2 °C 56.7 °F /  13.7 °C 30.19in /  1022.2hPa South 2mph /  3.2km/h 10mph /  16.1km/h 52% 0.00in /  0mm 751 W/m2
12:30 76.3 °F /  24.6 °C 56.3 °F /  13.5 °C 30.19in /  1022.2hPa South 5mph /  8km/h 8mph /  12.9km/h 50% 0.00in /  0mm 824 W/m2
12:40 76.6 °F /  24.8 °C 56.6 °F /  13.7 °C 30.19in /  1022.2hPa SSE 5mph /  8km/h 8mph /  12.9km/h 50% 0.00in /  0mm 823 W/m2
12:50 76.3 °F /  24.6 °C 56.3 °F /  13.5 °C 30.18in /  1021.9hPa SSE 2mph /  3.2km/h 8mph /  12.9km/h 50% 0.00in /  0mm 543 W/m2
13:00 75.8 °F /  24.3 °C 55.2 °F /  12.9 °C 30.18in /  1021.9hPa South 5mph /  8km/h 7mph /  11.3km/h 49% 0.00in /  0mm 661 W/m2
13:10 76.3 °F /  24.6 °C 55.7 °F /  13.2 °C 30.18in /  1021.9hPa South 5mph /  8km/h 7mph /  11.3km/h 49% 0.00in /  0mm 810 W/m2
13:20 76.6 °F /  24.8 °C 56 °F /  13.3 °C 30.18in /  1021.9hPa SSW 1mph /  1.6km/h 8mph /  12.9km/h 49% 0.00in /  0mm 803 W/m2
13:30 77 °F /  25 °C 55.2 °F /  12.9 °C 30.17in /  1021.6hPa South 6mph /  9.7km/h 8mph /  12.9km/h 47% 0.00in /  0mm 516 W/m2
13:40 76.6 °F /  24.8 °C 55.5 °F /  13.1 °C 30.17in /  1021.6hPa South 2mph /  3.2km/h 7mph /  11.3km/h 48% 0.00in /  0mm 669 W/m2
13:50 77 °F /  25 °C 55.2 °F /  12.9 °C 30.17in /  1021.6hPa SSW 2mph /  3.2km/h 5mph /  8km/h 47% 0.00in /  0mm 728 W/m2
14:00 77 °F /  25 °C 55.8 °F /  13.2 °C 30.16in /  1021.2hPa SSW 2mph /  3.2km/h 8mph /  12.9km/h 48% 0.00in /  0mm 757 W/m2
14:10 77.7 °F /  25.4 °C 56.4 °F /  13.6 °C 30.16in /  1021.2hPa SSW 5mph /  8km/h 8mph /  12.9km/h 48% 0.00in /  0mm 742 W/m2
14:20 77.7 °F /  25.4 °C 55.9 °F /  13.3 °C 30.15in /  1020.9hPa South 2mph /  3.2km/h 7mph /  11.3km/h 47% 0.00in /  0mm 584 W/m2
14:30 78.1 °F /  25.6 °C 56.2 °F /  13.4 °C 30.15in /  1020.9hPa NW 3mph /  4.8km/h 7mph /  11.3km/h 47% 0.00in /  0mm 708 W/m2
14:40 78.1 °F /  25.6 °C 55 °F /  12.8 °C 30.15in /  1020.9hPa West 5mph /  8km/h 8mph /  12.9km/h 45% 0.00in /  0mm 689 W/m2
14:50 78.4 °F /  25.8 °C 54.7 °F /  12.6 °C 30.15in /  1020.9hPa ENE 2mph /  3.2km/h 7mph /  11.3km/h 44% 0.00in /  0mm 668 W/m2
15:00 78.8 °F /  26 °C 55 °F /  12.8 °C 30.14in /  1020.5hPa West 5mph /  8km/h 6mph /  9.7km/h 44% 0.00in /  0mm 204 W/m2
15:10 78.4 °F /  25.8 °C 54.7 °F /  12.6 °C 30.14in /  1020.5hPa WSW 2mph /  3.2km/h 5mph /  8km/h 44% 0.00in /  0mm 623 W/m2
15:20 79 °F /  26.1 °C 55.2 °F /  12.9 °C 30.14in /  1020.5hPa SSW 5mph /  8km/h 8mph /  12.9km/h 44% 0.00in /  0mm 599 W/m2
15:30 78.6 °F /  25.9 °C 54.9 °F /  12.7 °C 30.14in /  1020.5hPa SW 2mph /  3.2km/h 8mph /  12.9km/h 44% 0.00in /  0mm 574 W/m2
15:40 78.8 °F /  26 °C 55 °F /  12.8 °C 30.13in /  1020.2hPa South 2mph /  3.2km/h 9mph /  14.5km/h 44% 0.00in /  0mm 548 W/m2
15:50 78.6 °F /  25.9 °C 54.9 °F /  12.7 °C 30.13in /  1020.2hPa SSE 3mph /  4.8km/h 8mph /  12.9km/h 44% 0.00in /  0mm 386 W/m2
16:00 78.8 °F /  26 °C 55 °F /  12.8 °C 30.13in /  1020.2hPa South 3mph /  4.8km/h 7mph /  11.3km/h 44% 0.00in /  0mm 493 W/m2
16:10 79 °F /  26.1 °C 55.2 °F /  12.9 °C 30.13in /  1020.2hPa SSW 5mph /  8km/h 8mph /  12.9km/h 44% 0.00in /  0mm 464 W/m2
16:20 78.6 °F /  25.9 °C 54.9 °F /  12.7 °C 30.12in /  1019.9hPa SW 3mph /  4.8km/h 8mph /  12.9km/h 44% 0.00in /  0mm 215 W/m2
16:30 78.4 °F /  25.8 °C 54.7 °F /  12.6 °C 30.12in /  1019.9hPa WSW 3mph /  4.8km/h 7mph /  11.3km/h 44% 0.00in /  0mm 321 W/m2
16:40 78.4 °F /  25.8 °C 54.7 °F /  12.6 °C 30.12in /  1019.9hPa SW 2mph /  3.2km/h 7mph /  11.3km/h 44% 0.00in /  0mm 159 W/m2
16:50 77.7 °F /  25.4 °C 54.1 °F /  12.3 °C 30.12in /  1019.9hPa SW 1mph /  1.6km/h 6mph /  9.7km/h 44% 0.00in /  0mm 141 W/m2
17:00 77.2 °F /  25.1 °C 53.6 °F /  12 °C 30.11in /  1019.5hPa Calm   6mph /  9.7km/h 44% 0.00in /  0mm 198 W/m2
17:10 76.8 °F /  24.9 °C 53.3 °F /  11.8 °C 30.11in /  1019.5hPa SSW 2mph /  3.2km/h 5mph /  8km/h 44% 0.00in /  0mm 263 W/m2
17:20 76.7 °F /  24.8 °C 53.1 °F /  11.7 °C 30.11in /  1019.5hPa SW 2mph /  3.2km/h 5mph /  8km/h 44% 0.00in /  0mm 123 W/m2
17:30 76.6 °F /  24.8 °C 53.1 °F /  11.7 °C 30.11in /  1019.5hPa SSW 2mph /  3.2km/h 6mph /  9.7km/h 44% 0.00in /  0mm 202 W/m2
17:40 76.5 °F /  24.7 °C 52.3 °F /  11.3 °C 30.11in /  1019.5hPa WSW 5mph /  8km/h 10mph /  16.1km/h 43% 0.00in /  0mm 82 W/m2
17:50 75.6 °F /  24.2 °C 51.5 °F /  10.8 °C 30.10in /  1019.2hPa SW 3mph /  4.8km/h 8mph /  12.9km/h 43% 0.00in /  0mm 151 W/m2
18:00 75.4 °F /  24.1 °C 51.3 °F /  10.7 °C 30.11in /  1019.5hPa WSW 1mph /  1.6km/h 8mph /  12.9km/h 43% 0.00in /  0mm 122 W/m2
18:10 75 °F /  23.9 °C 52.2 °F /  11.2 °C 30.10in /  1019.2hPa North 1mph /  1.6km/h 5mph /  8km/h 45% 0.00in /  0mm 91 W/m2
18:20 74.5 °F /  23.6 °C 52.9 °F /  11.6 °C 30.10in /  1019.2hPa North 5mph /  8km/h 7mph /  11.3km/h 47% 0.00in /  0mm 64 W/m2
18:30 73.9 °F /  23.3 °C 53 °F /  11.7 °C 30.10in /  1019.2hPa North 3mph /  4.8km/h 6mph /  9.7km/h 48% 0.00in /  0mm 43 W/m2
18:40 73 °F /  22.8 °C 53.3 °F /  11.8 °C 30.10in /  1019.2hPa NW 1mph /  1.6km/h 5mph /  8km/h 50% 0.00in /  0mm 27 W/m2
18:50 72.3 °F /  22.4 °C 54.2 °F /  12.3 °C 30.11in /  1019.5hPa NNW 1mph /  1.6km/h 4mph /  6.4km/h 53% 0.00in /  0mm 14 W/m2
19:00 71.4 °F /  21.9 °C 51.8 °F /  11 °C 30.10in /  1019.2hPa NW 1mph /  1.6km/h 4mph /  6.4km/h 50% 0.00in /  0mm 6 W/m2
19:10 70.9 °F /  21.6 °C 52.9 °F /  11.6 °C 30.11in /  1019.5hPa North 2mph /  3.2km/h 6mph /  9.7km/h 53% 0.00in /  0mm 0 W/m2
19:20 70.3 °F /  21.3 °C 52.4 °F /  11.3 °C 30.11in /  1019.5hPa North 1mph /  1.6km/h 6mph /  9.7km/h 53% 0.00in /  0mm 0 W/m2
19:30 69.4 °F /  20.8 °C 52.1 °F /  11.2 °C 30.12in /  1019.9hPa South 1mph /  1.6km/h 3mph /  4.8km/h 54% 0.00in /  0mm 0 W/m2
19:40 68.4 °F /  20.2 °C 51.6 °F /  10.9 °C 30.12in /  1019.9hPa WNW 3mph /  4.8km/h 4mph /  6.4km/h 55% 0.00in /  0mm 0 W/m2
19:50 67.6 °F /  19.8 °C 51.9 °F /  11.1 °C 30.12in /  1019.9hPa West 1mph /  1.6km/h 4mph /  6.4km/h 57% 0.00in /  0mm 0 W/m2
20:00 66.6 °F /  19.2 °C 51.3 °F /  10.7 °C 30.12in /  1019.9hPa South 1mph /  1.6km/h 3mph /  4.8km/h 58% 0.00in /  0mm 0 W/m2
20:10 65.5 °F /  18.6 °C 50.8 °F /  10.4 °C 30.13in /  1020.2hPa South 2mph /  3.2km/h 4mph /  6.4km/h 59% 0.00in /  0mm 0 W/m2
20:20 64.6 °F /  18.1 °C 50.4 °F /  10.2 °C 30.13in /  1020.2hPa SW 1mph /  1.6km/h 4mph /  6.4km/h 60% 0.00in /  0mm 0 W/m2
20:30 63.9 °F /  17.7 °C 50.6 °F /  10.3 °C 30.13in /  1020.2hPa WNW 1mph /  1.6km/h 4mph /  6.4km/h 62% 0.00in /  0mm 0 W/m2
20:40 63.3 °F /  17.4 °C 50.9 °F /  10.5 °C 30.13in /  1020.2hPa WSW 2mph /  3.2km/h 3mph /  4.8km/h 64% 0.00in /  0mm 0 W/m2
20:50 62.4 °F /  16.9 °C 50.5 °F /  10.3 °C 30.13in /  1020.2hPa SW 2mph /  3.2km/h 2mph /  3.2km/h 65% 0.00in /  0mm 0 W/m2
21:00 61.7 °F /  16.5 °C 50.6 °F /  10.3 °C 30.13in /  1020.2hPa SW 2mph /  3.2km/h 2mph /  3.2km/h 67% 0.00in /  0mm 0 W/m2
21:10 61 °F /  16.1 °C 50.3 °F /  10.2 °C 30.13in /  1020.2hPa SW 1mph /  1.6km/h 2mph /  3.2km/h 68% 0.00in /  0mm 0 W/m2
21:20 60.3 °F /  15.7 °C 49.7 °F /  9.8 °C 30.13in /  1020.2hPa WSW 1mph /  1.6km/h 3mph /  4.8km/h 68% 0.00in /  0mm 0 W/m2
21:30 59.5 °F /  15.3 °C 49.4 °F /  9.7 °C 30.13in /  1020.2hPa West 1mph /  1.6km/h 4mph /  6.4km/h 69% 0.00in /  0mm 0 W/m2
21:40 59 °F /  15 °C 49.2 °F /  9.6 °C 30.13in /  1020.2hPa WNW 1mph /  1.6km/h 2mph /  3.2km/h 70% 0.00in /  0mm 0 W/m2
21:50 58.6 °F /  14.8 °C 49.6 °F /  9.8 °C 30.13in /  1020.2hPa WSW 2mph /  3.2km/h 2mph /  3.2km/h 72% 0.00in /  0mm 0 W/m2
22:00 57.9 °F /  14.4 °C 48.9 °F /  9.4 °C 30.13in /  1020.2hPa WSW 2mph /  3.2km/h 3mph /  4.8km/h 72% 0.00in /  0mm 0 W/m2
22:10 57.6 °F /  14.2 °C 49 °F /  9.4 °C 30.13in /  1020.2hPa NNW 1mph /  1.6km/h 2mph /  3.2km/h 73% 0.00in /  0mm 0 W/m2
22:20 57.2 °F /  14 °C 48.6 °F /  9.2 °C 30.13in /  1020.2hPa West 1mph /  1.6km/h 2mph /  3.2km/h 73% 0.00in /  0mm 0 W/m2
22:30 57 °F /  13.9 °C 48.4 °F /  9.1 °C 30.13in /  1020.2hPa Calm   3mph /  4.8km/h 73% 0.00in /  0mm 0 W/m2
22:40 56.7 °F /  13.7 °C 48.5 °F /  9.2 °C 30.13in /  1020.2hPa SSE 1mph /  1.6km/h 3mph /  4.8km/h 74% 0.00in /  0mm 0 W/m2
22:50 55.9 °F /  13.3 °C 48.1 °F /  8.9 °C 30.13in /  1020.2hPa Calm   3mph /  4.8km/h 75% 0.00in /  0mm 0 W/m2
23:00 55.6 °F /  13.1 °C 48.5 °F /  9.2 °C 30.13in /  1020.2hPa Calm   2mph /  3.2km/h 77% 0.00in /  0mm 0 W/m2
23:10 55.2 °F /  12.9 °C 48.1 °F /  8.9 °C 30.14in /  1020.5hPa NNW 1mph /  1.6km/h 2mph /  3.2km/h 77% 0.00in /  0mm 0 W/m2
23:20 54.9 °F /  12.7 °C 47.8 °F /  8.8 °C 30.13in /  1020.2hPa WSW 1mph /  1.6km/h 4mph /  6.4km/h 77% 0.00in /  0mm 0 W/m2
23:30 54.9 °F /  12.7 °C 48.1 °F /  8.9 °C 30.13in /  1020.2hPa Calm   3mph /  4.8km/h 78% 0.00in /  0mm 0 W/m2
23:40 54.3 °F /  12.4 °C 47.3 °F /  8.5 °C 30.14in /  1020.5hPa Calm   2mph /  3.2km/h 77% 0.00in /  0mm 0 W/m2
23:50 53.8 °F /  12.1 °C 47.1 °F /  8.4 °C 30.14in /  1020.5hPa Calm     78% 0.00in /  0mm 0 W/m2
Knjazevac, Serbia
Compliments of Weather Underground - 2 mb